createdAt,value
2019-05-20T00:00:10.178Z,14.46
2019-05-20T00:03:13.417Z,14.37
2019-05-20T00:06:16.336Z,14.90
2019-05-20T00:09:19.325Z,14.96
2019-05-20T00:12:22.263Z,14.82
2019-05-20T00:15:25.264Z,14.97
2019-05-20T00:18:28.298Z,14.86
2019-05-20T00:21:31.275Z,14.76
2019-05-20T00:24:34.251Z,14.89
2019-05-20T00:27:37.273Z,14.98
2019-05-20T00:30:40.314Z,15.01
2019-05-20T00:33:43.344Z,14.85
2019-05-20T00:36:46.378Z,14.86
2019-05-20T00:39:49.306Z,15.07
2019-05-20T00:42:52.228Z,15.01
2019-05-20T00:45:55.134Z,15.01
2019-05-20T00:48:58.052Z,14.72
2019-05-20T00:52:00.980Z,14.55
2019-05-20T00:55:04.997Z,14.25
2019-05-20T00:58:08.427Z,14.46
2019-05-20T01:01:11.417Z,15.02
2019-05-20T01:04:14.327Z,14.80
2019-05-20T01:07:17.256Z,14.88
2019-05-20T01:10:20.197Z,14.44
2019-05-20T01:13:23.118Z,14.35
2019-05-20T01:16:26.048Z,14.51
2019-05-20T01:19:29.259Z,14.08
2019-05-20T01:22:32.172Z,14.35
2019-05-20T01:25:35.087Z,14.10
2019-05-20T01:28:38.307Z,14.27
2019-05-20T01:31:41.605Z,14.12
2019-05-20T01:34:44.536Z,14.36
2019-05-20T01:37:47.457Z,14.44
2019-05-20T01:40:50.448Z,14.54
2019-05-20T01:43:53.435Z,14.52
2019-05-20T01:46:56.332Z,14.49
2019-05-20T01:49:59.255Z,14.51
2019-05-20T01:53:02.164Z,14.46
2019-05-20T01:56:05.183Z,14.30
2019-05-20T01:59:08.218Z,14.47
2019-05-20T02:02:11.145Z,14.70
2019-05-20T02:05:14.268Z,14.68
2019-05-20T02:08:17.178Z,14.48
2019-05-20T02:11:20.089Z,14.51
2019-05-20T02:14:26.245Z,14.24
2019-05-20T02:17:29.172Z,14.27
2019-05-20T02:20:32.100Z,14.69
2019-05-20T02:23:34.995Z,14.49
2019-05-20T02:26:37.921Z,14.55
2019-05-20T02:29:40.824Z,14.64
2019-05-20T02:32:43.870Z,14.51
2019-05-20T02:35:46.860Z,14.67
2019-05-20T02:38:49.745Z,14.49
2019-05-20T02:41:52.681Z,14.63
2019-05-20T02:44:55.588Z,14.61
2019-05-20T02:47:58.859Z,14.56
2019-05-20T02:51:01.764Z,14.61
2019-05-20T02:54:04.692Z,14.97
2019-05-20T02:57:07.624Z,14.74
2019-05-20T03:00:11.541Z,14.77
2019-05-20T03:03:14.786Z,14.92
2019-05-20T03:06:17.695Z,14.90
2019-05-20T03:09:21.731Z,14.67
2019-05-20T03:12:25.131Z,14.80
2019-05-20T03:15:28.075Z,14.80
2019-05-20T03:18:31.255Z,14.83
2019-05-20T03:21:34.223Z,14.67
2019-05-20T03:24:37.166Z,14.73
2019-05-20T03:27:40.114Z,14.59
2019-05-20T03:30:43.678Z,14.78
2019-05-20T03:33:46.706Z,14.57
2019-05-20T03:36:49.967Z,14.40
2019-05-20T03:39:52.890Z,14.34
2019-05-20T03:42:56.106Z,14.25
2019-05-20T03:45:59.029Z,14.56
2019-05-20T03:49:01.956Z,14.94
2019-05-20T03:52:04.872Z,14.85
2019-05-20T03:55:08.121Z,14.95
2019-05-20T03:58:13.607Z,15.11
2019-05-20T04:01:16.956Z,14.94
2019-05-20T04:04:20.194Z,14.59
2019-05-20T04:07:23.106Z,14.51
2019-05-20T04:10:26.035Z,14.57
2019-05-20T04:13:28.966Z,14.64
2019-05-20T04:16:32.236Z,14.76
2019-05-20T04:19:35.145Z,14.68
2019-05-20T04:22:38.075Z,14.82
2019-05-20T04:25:41.014Z,14.88
2019-05-20T04:28:43.911Z,14.81
2019-05-20T04:31:48.339Z,14.74
2019-05-20T04:34:51.364Z,14.66
2019-05-20T04:37:54.306Z,14.80
2019-05-20T04:40:57.248Z,14.84
2019-05-20T04:44:00.548Z,14.88
2019-05-20T04:47:03.487Z,14.90
2019-05-20T04:50:06.598Z,14.80
2019-05-20T04:53:09.800Z,14.81
2019-05-20T04:56:12.815Z,14.96
2019-05-20T04:59:15.723Z,14.86
2019-05-20T05:02:18.668Z,14.93
2019-05-20T05:05:36.843Z,14.90
2019-05-20T05:08:26.427Z,14.87
2019-05-20T05:11:29.360Z,14.60
2019-05-20T05:14:32.354Z,14.82
2019-05-20T05:17:35.396Z,14.78
2019-05-20T05:20:38.301Z,14.90
2019-05-20T05:23:41.244Z,14.84
2019-05-20T05:26:47.566Z,15.03
2019-05-20T05:29:48.980Z,15.09
2019-05-20T05:32:51.924Z,15.11
2019-05-20T05:35:55.514Z,15.07
2019-05-20T05:38:58.438Z,15.08
2019-05-20T05:42:01.343Z,15.06
2019-05-20T05:45:04.565Z,14.98
2019-05-20T05:48:07.493Z,15.09
2019-05-20T05:51:10.416Z,15.10
2019-05-20T05:54:13.340Z,15.04
2019-05-20T05:57:16.282Z,15.11
2019-05-20T06:00:19.721Z,15.14
2019-05-20T06:03:22.645Z,15.20
2019-05-20T06:06:25.622Z,15.20
2019-05-20T06:09:28.538Z,15.27
2019-05-20T06:12:31.470Z,15.24
2019-05-20T06:15:34.380Z,15.22
2019-05-20T06:18:37.312Z,15.31
2019-05-20T06:21:40.221Z,15.42
2019-05-20T06:24:43.143Z,15.20
2019-05-20T06:27:46.103Z,15.19
2019-05-20T06:30:49.036Z,15.29
2019-05-20T06:33:51.970Z,15.38
2019-05-20T06:36:57.776Z,15.33
2019-05-20T06:40:00.741Z,15.43
2019-05-20T06:43:03.772Z,15.49
2019-05-20T06:46:06.706Z,15.47
2019-05-20T06:49:09.674Z,15.37
2019-05-20T06:52:12.690Z,15.47
2019-05-20T06:55:15.604Z,15.53
2019-05-20T06:58:18.626Z,15.54
2019-05-20T07:01:21.599Z,15.50
2019-05-20T07:04:25.157Z,15.38
2019-05-20T07:07:29.194Z,15.55
2019-05-20T07:10:32.327Z,15.49
2019-05-20T07:13:35.326Z,15.51
2019-05-20T07:16:38.250Z,15.58
2019-05-20T07:19:41.530Z,15.53
2019-05-20T07:22:55.375Z,15.62
2019-05-20T07:25:49.409Z,15.56
2019-05-20T07:28:52.416Z,15.65
2019-05-20T07:31:55.387Z,15.69
2019-05-20T07:34:59.408Z,15.66
2019-05-20T07:38:02.345Z,15.56
2019-05-20T07:41:05.361Z,15.58
2019-05-20T07:44:08.366Z,15.64
2019-05-20T07:47:11.478Z,15.62
2019-05-20T07:50:15.218Z,15.73
2019-05-20T07:53:18.849Z,15.78
2019-05-20T07:56:27.732Z,15.69
2019-05-20T07:59:33.318Z,15.84
2019-05-20T08:02:36.750Z,15.71
2019-05-20T08:05:39.653Z,15.75
2019-05-20T08:08:42.599Z,15.79
2019-05-20T08:11:45.542Z,15.76
2019-05-20T08:14:48.582Z,15.88
2019-05-20T08:17:51.504Z,15.91
2019-05-20T08:20:54.429Z,15.97
2019-05-20T08:23:57.355Z,15.88
2019-05-20T08:27:00.265Z,15.87
2019-05-20T08:30:04.121Z,15.89
2019-05-20T08:33:09.468Z,15.87
2019-05-20T08:36:12.387Z,15.94
2019-05-20T08:39:15.306Z,15.89
2019-05-20T08:42:18.230Z,15.97
2019-05-20T08:45:21.620Z,15.93
2019-05-20T08:48:24.566Z,15.82
2019-05-20T08:51:27.478Z,15.89
2019-05-20T08:54:30.402Z,15.93
2019-05-20T08:57:33.355Z,15.92
2019-05-20T09:00:36.257Z,15.90
2019-05-20T09:03:39.173Z,15.99
2019-05-20T09:06:42.828Z,16.09
2019-05-20T09:09:45.773Z,16.09
2019-05-20T09:12:49.020Z,16.13
2019-05-20T09:15:52.043Z,16.13
2019-05-20T09:18:54.981Z,16.16
2019-05-20T09:21:57.891Z,16.10
2019-05-20T09:25:00.911Z,16.07
2019-05-20T09:28:05.404Z,16.06
2019-05-20T09:31:08.739Z,16.15
2019-05-20T09:34:11.763Z,16.22
2019-05-20T09:37:14.681Z,16.28
2019-05-20T09:40:43.774Z,16.25
2019-05-20T09:43:46.678Z,16.26
2019-05-20T09:46:49.604Z,16.33
2019-05-20T09:49:52.540Z,16.29
2019-05-20T09:52:55.760Z,16.28
2019-05-20T09:55:58.787Z,16.35
2019-05-20T09:59:01.692Z,16.35
2019-05-20T10:02:04.710Z,16.24
2019-05-20T10:05:07.723Z,16.26
2019-05-20T10:08:10.660Z,16.12
2019-05-20T10:11:13.861Z,16.13
2019-05-20T10:14:16.766Z,16.13
2019-05-20T10:17:19.701Z,16.06
2019-05-20T10:20:22.610Z,16.11
2019-05-20T10:23:25.558Z,16.13
2019-05-20T10:26:28.491Z,16.15
2019-05-20T10:29:31.439Z,16.18
2019-05-20T10:32:34.377Z,16.12
2019-05-20T10:35:37.510Z,16.14
2019-05-20T10:38:56.910Z,16.26
2019-05-20T10:41:45.784Z,16.20
2019-05-20T10:44:48.764Z,16.22
2019-05-20T10:47:51.705Z,16.20
2019-05-20T10:50:54.646Z,16.30
2019-05-20T10:53:58.475Z,16.35
2019-05-20T10:57:01.381Z,16.37
2019-05-20T11:00:06.935Z,16.32
2019-05-20T11:03:09.872Z,16.32
2019-05-20T11:06:12.912Z,16.32
2019-05-20T11:09:15.908Z,16.44
2019-05-20T11:12:18.850Z,16.41
2019-05-20T11:15:21.831Z,16.46
2019-05-20T11:18:24.862Z,16.43
2019-05-20T11:21:27.760Z,16.51
2019-05-20T11:24:30.701Z,16.61
2019-05-20T11:27:33.640Z,16.61
2019-05-20T11:30:38.854Z,16.71
2019-05-20T11:33:41.762Z,16.67
2019-05-20T11:36:45.074Z,16.71
2019-05-20T11:39:48.109Z,16.75
2019-05-20T11:42:51.068Z,16.73
2019-05-20T11:45:54.014Z,16.64
2019-05-20T11:48:58.043Z,16.61
2019-05-20T11:52:02.075Z,16.68
2019-05-20T11:55:06.288Z,16.71
2019-05-20T11:58:15.660Z,16.79
2019-05-20T12:01:14.078Z,16.75
2019-05-20T12:04:18.126Z,16.76
2019-05-20T12:07:21.087Z,16.78
2019-05-20T12:10:23.988Z,16.82
2019-05-20T12:13:27.340Z,16.80
2019-05-20T12:16:30.279Z,16.83
2019-05-20T12:19:33.287Z,16.73
2019-05-20T12:22:36.245Z,16.68
2019-05-20T12:25:39.201Z,16.77
2019-05-20T12:28:44.388Z,16.72
2019-05-20T12:31:47.315Z,16.67
2019-05-20T12:34:50.246Z,16.66
2019-05-20T12:37:53.423Z,16.74
2019-05-20T12:40:56.324Z,16.82
2019-05-20T12:44:10.928Z,16.88
2019-05-20T12:47:04.093Z,16.78
2019-05-20T12:50:07.952Z,16.75
2019-05-20T12:53:11.860Z,16.81
2019-05-20T12:56:19.064Z,16.94
2019-05-20T12:59:19.968Z,16.86
2019-05-20T13:02:22.881Z,16.87
2019-05-20T13:05:25.812Z,16.90
2019-05-20T13:08:28.739Z,16.85
2019-05-20T13:11:31.690Z,16.88
2019-05-20T13:14:34.650Z,16.85
2019-05-20T13:17:43.394Z,16.91
2019-05-20T13:20:42.594Z,16.89
2019-05-20T13:23:48.818Z,16.86
2019-05-20T13:26:50.389Z,16.87
2019-05-20T13:29:53.360Z,16.74
2019-05-20T13:32:56.298Z,16.82
2019-05-20T13:35:59.267Z,16.83
2019-05-20T13:39:04.164Z,16.90
2019-05-20T13:42:07.225Z,16.99
2019-05-20T13:45:10.725Z,17.03
2019-05-20T13:48:14.791Z,17.05
2019-05-20T13:51:18.585Z,16.94
2019-05-20T13:54:21.532Z,16.87
2019-05-20T13:57:24.486Z,16.93
2019-05-20T14:00:27.492Z,16.87
2019-05-20T14:03:30.794Z,16.87
2019-05-20T14:06:33.719Z,17.05
2019-05-20T14:09:36.669Z,16.94
2019-05-20T14:12:39.582Z,16.98
2019-05-20T14:15:42.528Z,17.06
2019-05-20T14:18:45.528Z,17.13
2019-05-20T14:21:48.459Z,16.90
2019-05-20T14:24:51.469Z,16.96
2019-05-20T14:27:54.498Z,16.94
2019-05-20T14:30:57.450Z,16.98
2019-05-20T14:34:00.333Z,17.12
2019-05-20T14:37:03.406Z,17.12
2019-05-20T14:40:06.994Z,17.05
2019-05-20T14:43:11.083Z,16.99
2019-05-20T14:46:14.018Z,16.98
2019-05-20T14:49:17.040Z,16.96
2019-05-20T14:52:19.989Z,16.96
2019-05-20T14:55:23.371Z,17.03
2019-05-20T14:58:26.743Z,17.07
2019-05-20T15:01:29.792Z,17.07
2019-05-20T15:04:33.106Z,17.06
2019-05-20T15:07:36.144Z,17.04
2019-05-20T15:10:39.051Z,16.99
2019-05-20T15:13:42.346Z,17.04
2019-05-20T15:16:45.681Z,17.07
2019-05-20T15:19:48.602Z,17.08
2019-05-20T15:22:52.522Z,17.08
2019-05-20T15:25:55.418Z,17.14
2019-05-20T15:28:58.346Z,17.09
2019-05-20T15:32:01.575Z,17.04
2019-05-20T15:35:05.511Z,17.03
2019-05-20T15:38:08.452Z,17.00
2019-05-20T15:41:11.367Z,16.99
2019-05-20T15:44:14.309Z,17.00
2019-05-20T15:47:18.946Z,16.95
2019-05-20T15:50:22.543Z,16.93
2019-05-20T15:53:25.567Z,16.82
2019-05-20T15:56:28.488Z,16.86
2019-05-20T15:59:44.711Z,16.88
2019-05-20T16:02:36.287Z,16.83
2019-05-20T16:05:39.211Z,16.88
2019-05-20T16:08:42.113Z,16.84
2019-05-20T16:11:45.143Z,16.85
2019-05-20T16:14:51.317Z,16.86
2019-05-20T16:17:53.085Z,16.84
2019-05-20T16:20:56.113Z,16.87
2019-05-20T16:23:59.313Z,16.84
2019-05-20T16:27:02.253Z,16.83
2019-05-20T16:30:07.537Z,16.77
2019-05-20T16:33:10.802Z,16.80
2019-05-20T16:36:13.830Z,16.77
2019-05-20T16:39:16.949Z,16.76
2019-05-20T16:42:20.149Z,16.80
2019-05-20T16:45:23.337Z,16.80
2019-05-20T16:48:26.240Z,16.83
2019-05-20T16:51:29.367Z,16.82
2019-05-20T16:54:32.301Z,16.77
2019-05-20T16:57:35.411Z,16.78
2019-05-20T17:00:38.756Z,16.71
2019-05-20T17:03:41.800Z,16.71
2019-05-20T17:06:44.740Z,16.71
2019-05-20T17:09:47.840Z,16.76
2019-05-20T17:12:50.791Z,16.77
2019-05-20T17:15:53.728Z,16.76
2019-05-20T17:18:56.644Z,16.77
2019-05-20T17:21:59.569Z,16.76
2019-05-20T17:25:02.538Z,16.78
2019-05-20T17:28:05.586Z,16.78
2019-05-20T17:31:08.516Z,16.85
2019-05-20T17:34:11.449Z,16.85
2019-05-20T17:37:14.450Z,16.86
2019-05-20T17:40:18.387Z,16.71
2019-05-20T17:43:21.728Z,16.73
2019-05-20T17:46:25.757Z,16.71
2019-05-20T17:49:29.006Z,16.72
2019-05-20T17:52:31.912Z,16.74
2019-05-20T17:55:34.890Z,16.70
2019-05-20T17:58:38.036Z,16.74
2019-05-20T18:01:41.178Z,16.72
2019-05-20T18:04:44.129Z,16.70
2019-05-20T18:07:47.038Z,16.67
2019-05-20T18:10:49.979Z,16.67
2019-05-20T18:13:53.021Z,16.68
2019-05-20T18:16:56.584Z,16.76
2019-05-20T18:19:59.581Z,16.68
2019-05-20T18:23:02.516Z,16.76
2019-05-20T18:26:05.822Z,16.78
2019-05-20T18:29:08.771Z,16.79
2019-05-20T18:32:11.800Z,16.78
2019-05-20T18:35:14.704Z,16.76
2019-05-20T18:38:17.629Z,16.73
2019-05-20T18:41:20.761Z,16.72
2019-05-20T18:44:23.733Z,16.71
2019-05-20T18:47:26.665Z,16.62
2019-05-20T18:50:29.677Z,16.71
2019-05-20T18:53:32.949Z,16.70
2019-05-20T18:56:35.932Z,16.67
2019-05-20T18:59:38.984Z,16.71
2019-05-20T19:02:42.353Z,16.72
2019-05-20T19:05:45.439Z,16.63
2019-05-20T19:08:48.464Z,16.60
2019-05-20T19:11:51.377Z,16.54
2019-05-20T19:14:55.442Z,16.60
2019-05-20T19:17:58.394Z,16.55
2019-05-20T19:21:01.333Z,16.47
2019-05-20T19:24:04.681Z,16.53
2019-05-20T19:27:07.588Z,16.54
2019-05-20T19:30:10.844Z,16.50
2019-05-20T19:33:14.904Z,16.53
2019-05-20T19:36:17.849Z,16.57
2019-05-20T19:39:22.073Z,16.61
2019-05-20T19:42:25.376Z,16.50
2019-05-20T19:45:28.755Z,16.61
2019-05-20T19:48:31.799Z,16.66
2019-05-20T19:51:34.727Z,16.57
2019-05-20T19:54:37.637Z,16.55
2019-05-20T19:57:40.583Z,16.61
2019-05-20T20:00:43.599Z,16.63
2019-05-20T20:03:46.566Z,16.55
2019-05-20T20:06:49.661Z,16.57
2019-05-20T20:09:52.732Z,16.64
2019-05-20T20:12:55.631Z,16.65
2019-05-20T20:16:00.248Z,16.64
2019-05-20T20:19:03.209Z,16.57
2019-05-20T20:22:06.523Z,16.58
2019-05-20T20:25:09.652Z,16.55
2019-05-20T20:28:13.017Z,16.48
2019-05-20T20:31:16.358Z,16.48
2019-05-20T20:34:19.279Z,16.38
2019-05-20T20:37:22.194Z,16.48
2019-05-20T20:40:25.109Z,16.36
2019-05-20T20:43:28.119Z,16.41
2019-05-20T20:46:31.270Z,16.46
2019-05-20T20:49:34.356Z,16.46
2019-05-20T20:52:37.440Z,16.36
2019-05-20T20:55:40.364Z,16.39
2019-05-20T20:58:43.277Z,16.22
2019-05-20T21:01:46.859Z,16.38
2019-05-20T21:04:50.276Z,16.37
2019-05-20T21:07:53.514Z,16.35
2019-05-20T21:10:56.426Z,16.19
2019-05-20T21:13:59.337Z,16.20
2019-05-20T21:17:02.857Z,16.28
2019-05-20T21:20:06.155Z,16.30
2019-05-20T21:23:09.079Z,16.20
2019-05-20T21:26:11.999Z,16.25
2019-05-20T21:29:14.935Z,16.23
2019-05-20T21:32:17.883Z,16.25
2019-05-20T21:35:21.200Z,16.35
2019-05-20T21:38:24.109Z,16.26
2019-05-20T21:41:27.015Z,16.27
2019-05-20T21:44:30.004Z,16.18
2019-05-20T21:47:32.923Z,16.26
2019-05-20T21:50:35.835Z,16.27
2019-05-20T21:53:38.771Z,16.34
2019-05-20T21:56:41.670Z,16.20
2019-05-20T21:59:44.597Z,16.28
2019-05-20T22:02:47.510Z,16.29
2019-05-20T22:05:50.530Z,16.25
2019-05-20T22:08:53.817Z,16.19
2019-05-20T22:11:56.725Z,16.14
2019-05-20T22:14:59.654Z,16.06
2019-05-20T22:18:02.772Z,16.13
2019-05-20T22:21:07.368Z,16.17
2019-05-20T22:24:10.725Z,16.18
2019-05-20T22:27:13.941Z,16.18
2019-05-20T22:30:16.899Z,16.12
2019-05-20T22:33:19.814Z,16.10
2019-05-20T22:36:23.863Z,16.08
2019-05-20T22:39:26.768Z,16.07
2019-05-20T22:42:29.707Z,16.07
2019-05-20T22:45:32.662Z,16.12
2019-05-20T22:48:35.583Z,16.00
2019-05-20T22:51:38.522Z,15.94
2019-05-20T22:54:41.474Z,15.95
2019-05-20T22:57:44.724Z,15.97
2019-05-20T23:00:47.634Z,15.84
2019-05-20T23:03:56.374Z,15.96
2019-05-20T23:06:55.416Z,15.99
2019-05-20T23:09:58.323Z,15.85
2019-05-20T23:13:01.257Z,16.06
2019-05-20T23:16:04.185Z,15.95
2019-05-20T23:19:07.141Z,15.97
2019-05-20T23:22:10.059Z,15.85
2019-05-20T23:25:12.967Z,15.84
2019-05-20T23:28:16.223Z,15.85
2019-05-20T23:31:19.251Z,15.75
2019-05-20T23:34:22.171Z,15.71
2019-05-20T23:37:25.405Z,15.54
2019-05-20T23:40:28.329Z,15.45
2019-05-20T23:43:31.271Z,15.65
2019-05-20T23:46:34.180Z,15.81
2019-05-20T23:49:37.131Z,15.64
2019-05-20T23:52:40.102Z,15.73
2019-05-20T23:55:43.863Z,15.59
2019-05-20T23:58:47.200Z,15.77
